createdAt,value
2023-02-02T00:01:53.266Z,5.50
2023-02-02T00:04:34.086Z,5.60
2023-02-02T00:07:03.068Z,5.60
2023-02-02T00:09:32.278Z,5.70
2023-02-02T00:12:00.983Z,5.60
2023-02-02T00:14:28.855Z,5.70
2023-02-02T00:16:57.454Z,5.80
2023-02-02T00:19:30.335Z,5.90
2023-02-02T00:21:58.153Z,5.90
2023-02-02T00:24:25.611Z,5.90
2023-02-02T00:26:56.603Z,5.80
2023-02-02T00:29:30.242Z,5.90
2023-02-02T00:31:57.627Z,5.90
2023-02-02T00:34:26.031Z,5.90
2023-02-02T00:36:53.332Z,5.90
2023-02-02T00:39:25.506Z,6.00
2023-02-02T00:41:52.741Z,6.00
2023-02-02T00:44:38.255Z,6.10
2023-02-02T00:47:05.518Z,6.10
2023-02-02T00:49:32.593Z,5.90
2023-02-02T00:52:00.545Z,6.00
2023-02-02T00:54:28.259Z,5.90
2023-02-02T00:56:55.425Z,5.80
2023-02-02T00:59:22.618Z,5.70
2023-02-02T01:01:49.802Z,5.70
2023-02-02T01:04:17.023Z,5.60
2023-02-02T01:06:44.128Z,5.60
2023-02-02T01:09:11.279Z,5.50
2023-02-02T01:11:38.410Z,5.50
2023-02-02T01:14:05.993Z,5.40
2023-02-02T01:16:34.190Z,5.40
2023-02-02T01:19:01.354Z,5.40
2023-02-02T01:21:28.463Z,5.40
2023-02-02T01:23:55.552Z,5.40
2023-02-02T01:26:24.726Z,5.40
2023-02-02T01:28:51.876Z,5.40
2023-02-02T01:31:20.311Z,5.40
2023-02-02T01:33:49.604Z,5.30
2023-02-02T01:36:21.811Z,5.30
2023-02-02T01:38:50.062Z,5.30
2023-02-02T01:41:22.064Z,5.30
2023-02-02T01:43:55.365Z,5.20
2023-02-02T01:46:38.012Z,5.20
2023-02-02T01:49:18.411Z,5.20
2023-02-02T01:51:54.026Z,5.20
2023-02-02T01:54:38.226Z,5.20
2023-02-02T01:57:49.682Z,5.20
2023-02-02T02:00:24.571Z,5.20
2023-02-02T02:02:56.069Z,5.20
2023-02-02T02:05:36.756Z,5.20
2023-02-02T02:08:28.137Z,5.20
2023-02-02T02:10:56.126Z,5.20
2023-02-02T02:13:46.544Z,5.20
2023-02-02T02:16:55.133Z,5.20
2023-02-02T02:20:14.245Z,5.30
2023-02-02T02:23:37.028Z,5.30
2023-02-02T02:27:00.690Z,5.30
2023-02-02T02:29:55.783Z,5.30
2023-02-02T02:32:39.201Z,5.40
2023-02-02T02:35:50.872Z,5.30
2023-02-02T02:38:39.697Z,5.40
2023-02-02T02:41:16.446Z,5.40
2023-02-02T02:43:55.148Z,5.40
2023-02-02T02:46:23.496Z,5.40
2023-02-02T02:48:50.618Z,5.40
2023-02-02T02:51:42.510Z,5.40
2023-02-02T02:54:12.325Z,5.40
2023-02-02T02:56:53.214Z,5.40
2023-02-02T02:59:57.490Z,5.40
2023-02-02T03:02:53.389Z,5.50
2023-02-02T03:05:45.804Z,5.50
2023-02-02T03:08:32.866Z,5.50
2023-02-02T03:11:02.389Z,5.50
2023-02-02T03:13:30.986Z,5.40
2023-02-02T03:15:59.637Z,5.40
2023-02-02T03:18:31.904Z,5.40
2023-02-02T03:20:59.964Z,5.40
2023-02-02T03:23:27.390Z,5.40
2023-02-02T03:25:55.762Z,5.40
2023-02-02T03:28:24.769Z,5.40
2023-02-02T03:30:53.836Z,5.40
2023-02-02T03:33:21.479Z,5.40
2023-02-02T03:35:48.598Z,5.40
2023-02-02T03:38:15.800Z,5.40
2023-02-02T03:40:42.897Z,5.40
2023-02-02T03:43:10.236Z,5.40
2023-02-02T03:45:37.421Z,5.40
2023-02-02T03:48:05.915Z,5.40
2023-02-02T03:50:33.916Z,5.40
2023-02-02T03:53:00.961Z,5.40
2023-02-02T03:55:28.121Z,5.40
2023-02-02T03:57:55.223Z,5.40
2023-02-02T04:00:22.559Z,5.40
2023-02-02T04:02:50.881Z,5.40
2023-02-02T04:05:18.094Z,5.50
2023-02-02T04:07:45.238Z,5.40
2023-02-02T04:10:12.685Z,5.50
2023-02-02T04:12:39.868Z,5.40
2023-02-02T04:15:08.137Z,5.50
2023-02-02T04:17:35.495Z,5.50
2023-02-02T04:20:05.135Z,5.50
2023-02-02T04:22:33.520Z,5.50
2023-02-02T04:25:00.827Z,5.50
2023-02-02T04:27:28.148Z,5.40
2023-02-02T04:29:55.255Z,5.40
2023-02-02T04:32:22.314Z,5.40
2023-02-02T04:34:49.419Z,5.30
2023-02-02T04:37:16.563Z,5.30
2023-02-02T04:39:43.635Z,5.30
2023-02-02T04:42:13.358Z,5.40
2023-02-02T04:44:40.960Z,5.40
2023-02-02T04:47:08.105Z,5.40
2023-02-02T04:49:35.255Z,5.40
2023-02-02T04:52:02.767Z,5.50
2023-02-02T04:54:29.918Z,5.50
2023-02-02T04:56:57.038Z,5.50
2023-02-02T04:59:24.270Z,5.60
2023-02-02T05:01:51.373Z,5.50
2023-02-02T05:04:18.629Z,5.60
2023-02-02T05:06:45.753Z,5.60
2023-02-02T05:09:12.905Z,5.60
2023-02-02T05:11:44.557Z,5.60
2023-02-02T05:14:11.946Z,5.70
2023-02-02T05:16:39.785Z,5.70
2023-02-02T05:19:06.887Z,5.70
2023-02-02T05:21:33.971Z,5.70
2023-02-02T05:24:01.682Z,5.70
2023-02-02T05:26:28.913Z,5.70
2023-02-02T05:28:56.848Z,5.70
2023-02-02T05:31:24.145Z,5.80
2023-02-02T05:33:51.246Z,5.80
2023-02-02T05:36:18.527Z,5.80
2023-02-02T05:38:45.671Z,5.80
2023-02-02T05:41:12.968Z,5.90
2023-02-02T05:43:40.177Z,5.90
2023-02-02T05:46:07.351Z,5.80
2023-02-02T05:48:34.700Z,5.90
2023-02-02T05:51:26.685Z,5.90
2023-02-02T05:53:53.802Z,5.90
2023-02-02T05:56:20.903Z,5.90
2023-02-02T05:58:49.921Z,5.90
2023-02-02T06:01:18.513Z,5.90
2023-02-02T06:03:45.920Z,5.90
2023-02-02T06:06:14.292Z,5.90
2023-02-02T06:08:41.394Z,5.90
2023-02-02T06:11:18.025Z,5.90
2023-02-02T06:13:46.110Z,5.90
2023-02-02T06:16:13.649Z,6.00
2023-02-02T06:18:40.742Z,6.00
2023-02-02T06:21:07.937Z,6.00
2023-02-02T06:23:35.635Z,6.00
2023-02-02T06:26:04.475Z,6.00
2023-02-02T06:28:32.340Z,6.00
2023-02-02T06:31:07.852Z,6.00
2023-02-02T06:33:35.614Z,6.00
2023-02-02T06:36:05.678Z,6.00
2023-02-02T06:38:36.353Z,6.00
2023-02-02T06:41:03.890Z,6.10
2023-02-02T06:43:31.216Z,6.00
2023-02-02T06:45:58.799Z,6.10
2023-02-02T06:48:27.587Z,6.00
2023-02-02T06:50:58.261Z,6.00
2023-02-02T06:53:26.722Z,6.00
2023-02-02T06:56:01.366Z,6.00
2023-02-02T06:58:29.962Z,5.90
2023-02-02T07:01:04.950Z,6.00
2023-02-02T07:03:32.707Z,6.00
2023-02-02T07:06:00.614Z,6.00
2023-02-02T07:08:27.696Z,6.00
2023-02-02T07:11:10.549Z,6.00
2023-02-02T07:13:41.916Z,6.00
2023-02-02T07:16:13.029Z,5.90
2023-02-02T07:18:42.979Z,6.00
2023-02-02T07:21:17.561Z,6.00
2023-02-02T07:23:44.733Z,6.00
2023-02-02T07:26:13.910Z,6.00
2023-02-02T07:28:41.900Z,6.00
2023-02-02T07:31:36.786Z,6.10
2023-02-02T07:34:04.537Z,6.10
2023-02-02T07:36:31.791Z,6.10
2023-02-02T07:38:59.786Z,6.10
2023-02-02T07:41:27.965Z,6.10
2023-02-02T07:43:55.090Z,6.10
2023-02-02T07:46:22.353Z,6.20
2023-02-02T07:48:49.659Z,6.20
2023-02-02T07:51:18.348Z,6.20
2023-02-02T07:53:48.184Z,6.20
2023-02-02T07:56:26.214Z,6.20
2023-02-02T07:58:55.400Z,6.20
2023-02-02T08:01:26.253Z,6.20
2023-02-02T08:03:55.282Z,6.20
2023-02-02T08:06:35.296Z,6.20
2023-02-02T08:09:05.288Z,6.30
2023-02-02T08:11:32.612Z,6.30
2023-02-02T08:14:02.014Z,6.30
2023-02-02T08:16:31.791Z,6.30
2023-02-02T08:18:59.581Z,6.30
2023-02-02T08:21:27.095Z,6.40
2023-02-02T08:23:54.630Z,6.40
2023-02-02T08:26:25.713Z,6.40
2023-02-02T08:28:57.073Z,6.40
2023-02-02T08:31:45.811Z,6.40
2023-02-02T08:34:14.228Z,6.40
2023-02-02T08:36:42.073Z,6.40
2023-02-02T08:39:12.981Z,6.40
2023-02-02T08:41:40.305Z,6.40
2023-02-02T08:44:11.336Z,6.40
2023-02-02T08:46:38.900Z,6.40
2023-02-02T08:49:06.253Z,6.60
2023-02-02T08:51:33.505Z,6.60
2023-02-02T08:54:00.598Z,6.60
2023-02-02T08:56:27.819Z,6.60
2023-02-02T08:58:58.296Z,6.70
2023-02-02T09:01:29.473Z,6.70
2023-02-02T09:04:01.368Z,6.70
2023-02-02T09:06:35.446Z,6.70
2023-02-02T09:09:04.731Z,6.70
2023-02-02T09:11:32.098Z,6.70
2023-02-02T09:14:02.276Z,6.60
2023-02-02T09:16:30.059Z,6.70
2023-02-02T09:18:58.210Z,6.70
2023-02-02T09:21:26.154Z,6.70
2023-02-02T09:23:54.540Z,6.70
2023-02-02T09:26:30.510Z,6.80
2023-02-02T09:29:04.398Z,6.80
2023-02-02T09:31:35.341Z,6.80
2023-02-02T09:34:08.778Z,6.80
2023-02-02T09:36:37.942Z,6.90
2023-02-02T09:39:06.069Z,6.90
2023-02-02T09:41:39.158Z,6.90
2023-02-02T09:44:46.097Z,6.90
2023-02-02T09:47:18.221Z,6.90
2023-02-02T09:50:08.939Z,6.90
2023-02-02T09:53:23.115Z,7.00
2023-02-02T09:55:58.857Z,7.00
2023-02-02T09:58:35.983Z,7.10
2023-02-02T10:01:15.052Z,7.10
2023-02-02T10:04:04.948Z,7.10
2023-02-02T10:06:52.156Z,7.20
2023-02-02T10:09:55.781Z,7.00
2023-02-02T10:12:37.162Z,7.00
2023-02-02T10:15:49.329Z,7.00
2023-02-02T10:18:47.306Z,7.10
2023-02-02T10:21:29.249Z,7.10
2023-02-02T10:23:58.650Z,7.10
2023-02-02T10:26:29.500Z,7.20
2023-02-02T10:29:22.761Z,7.10
2023-02-02T10:32:14.838Z,7.10
2023-02-02T10:35:13.434Z,7.10
2023-02-02T10:38:03.519Z,7.00
2023-02-02T10:40:58.229Z,6.90
2023-02-02T10:43:59.896Z,6.90
2023-02-02T10:46:31.989Z,6.90
2023-02-02T10:49:56.048Z,6.90
2023-02-02T10:52:32.736Z,6.90
2023-02-02T10:55:14.513Z,6.90
2023-02-02T10:58:09.010Z,6.90
2023-02-02T11:00:46.376Z,6.90
2023-02-02T11:03:17.313Z,6.80
2023-02-02T11:06:03.347Z,6.80
2023-02-02T11:08:46.670Z,6.80
2023-02-02T11:11:39.198Z,6.90
2023-02-02T11:14:09.363Z,6.90
2023-02-02T11:16:43.040Z,7.00
2023-02-02T11:19:30.201Z,7.00
2023-02-02T11:22:03.042Z,7.00
2023-02-02T11:24:46.365Z,6.90
2023-02-02T11:27:42.816Z,6.90
2023-02-02T11:30:27.510Z,7.00
2023-02-02T11:32:55.920Z,7.10
2023-02-02T11:35:31.301Z,7.20
2023-02-02T11:38:16.808Z,7.20
2023-02-02T11:41:03.072Z,7.20
2023-02-02T11:43:52.962Z,7.30
2023-02-02T11:46:31.482Z,7.30
2023-02-02T11:49:16.825Z,7.30
2023-02-02T11:51:44.880Z,7.30
2023-02-02T11:54:30.488Z,7.30
2023-02-02T11:57:02.281Z,7.20
2023-02-02T11:59:39.159Z,7.30
2023-02-02T12:02:31.177Z,7.30
2023-02-02T12:05:10.415Z,7.40
2023-02-02T12:07:37.738Z,7.40
2023-02-02T12:10:35.630Z,7.40
2023-02-02T12:13:40.769Z,7.50
2023-02-02T12:16:56.637Z,7.50
2023-02-02T12:19:50.385Z,7.40
2023-02-02T12:22:32.162Z,7.40
2023-02-02T12:25:29.845Z,7.50
2023-02-02T12:28:14.929Z,7.60
2023-02-02T12:30:51.732Z,7.50
2023-02-02T12:33:52.218Z,7.50
2023-02-02T12:36:41.902Z,7.50
2023-02-02T12:39:39.776Z,7.40
2023-02-02T12:42:32.701Z,7.40
2023-02-02T12:45:35.541Z,7.50
2023-02-02T12:48:32.741Z,7.60
2023-02-02T12:51:43.813Z,7.50
2023-02-02T12:54:53.082Z,7.60
2023-02-02T12:57:26.218Z,7.60
2023-02-02T13:00:15.301Z,7.60
2023-02-02T13:03:09.597Z,7.60
2023-02-02T13:05:48.540Z,7.60
2023-02-02T13:08:42.721Z,7.50
2023-02-02T13:11:31.697Z,7.50
2023-02-02T13:14:17.755Z,7.50
2023-02-02T13:16:50.602Z,7.60
2023-02-02T13:19:41.101Z,7.60
2023-02-02T13:22:17.786Z,7.60
2023-02-02T13:24:48.524Z,7.60
2023-02-02T13:27:20.488Z,7.60
2023-02-02T13:30:05.794Z,7.60
2023-02-02T13:32:40.428Z,7.70
2023-02-02T13:35:25.767Z,7.70
2023-02-02T13:38:03.348Z,7.80
2023-02-02T13:40:43.784Z,7.90
2023-02-02T13:43:44.206Z,8.00
2023-02-02T13:46:14.236Z,8.00
2023-02-02T13:48:50.817Z,8.00
2023-02-02T13:52:03.558Z,8.00
2023-02-02T13:55:27.033Z,7.90
2023-02-02T13:58:21.433Z,7.90
2023-02-02T14:01:02.087Z,7.90
2023-02-02T14:03:41.440Z,7.90
2023-02-02T14:06:21.427Z,8.10
2023-02-02T14:08:58.137Z,8.00
2023-02-02T14:11:35.142Z,8.10
2023-02-02T14:14:38.166Z,8.20
2023-02-02T14:17:34.137Z,8.20
2023-02-02T14:20:05.873Z,8.20
2023-02-02T14:22:48.446Z,8.40
2023-02-02T14:25:36.884Z,8.40
2023-02-02T14:28:44.479Z,8.30
2023-02-02T14:31:42.294Z,8.30
2023-02-02T14:34:39.986Z,8.40
2023-02-02T14:37:25.397Z,8.30
2023-02-02T14:40:07.623Z,8.20
2023-02-02T14:43:23.645Z,8.30
2023-02-02T14:46:13.429Z,8.30
2023-02-02T14:48:43.786Z,8.30
2023-02-02T14:51:27.247Z,8.30
2023-02-02T14:54:01.141Z,8.30
2023-02-02T14:56:54.566Z,8.20
2023-02-02T14:59:40.489Z,8.20
2023-02-02T15:02:32.804Z,8.20
2023-02-02T15:05:34.300Z,8.20
2023-02-02T15:08:27.993Z,8.20
2023-02-02T15:11:25.147Z,8.20
2023-02-02T15:13:59.127Z,8.20
2023-02-02T15:16:31.881Z,8.20
2023-02-02T15:19:32.461Z,8.20
2023-02-02T15:22:29.820Z,8.20
2023-02-02T15:25:03.331Z,8.20
2023-02-02T15:27:32.135Z,8.30
2023-02-02T15:30:07.797Z,8.30
2023-02-02T15:32:36.587Z,8.10
2023-02-02T15:35:08.497Z,8.20
2023-02-02T15:37:45.156Z,8.10
2023-02-02T15:40:21.966Z,8.10
2023-02-02T15:43:06.350Z,8.10
2023-02-02T15:45:55.064Z,8.00
2023-02-02T15:48:31.823Z,8.00
2023-02-02T15:51:06.581Z,8.00
2023-02-02T15:53:42.841Z,8.10
2023-02-02T15:56:25.115Z,8.00
2023-02-02T15:58:57.105Z,8.10
2023-02-02T16:01:26.098Z,8.00
2023-02-02T16:04:18.304Z,8.00
2023-02-02T16:06:46.012Z,8.00
2023-02-02T16:09:28.027Z,8.00
2023-02-02T16:11:55.470Z,8.00
2023-02-02T16:14:23.863Z,8.00
2023-02-02T16:16:51.046Z,7.90
2023-02-02T16:19:25.596Z,7.80
2023-02-02T16:22:09.539Z,7.80
2023-02-02T16:24:45.587Z,7.70
2023-02-02T16:27:22.843Z,7.60
2023-02-02T16:29:50.781Z,7.70
2023-02-02T16:32:31.019Z,7.70
2023-02-02T16:34:59.741Z,7.60
2023-02-02T16:37:33.405Z,7.60
2023-02-02T16:40:27.812Z,7.60
2023-02-02T16:43:21.164Z,7.60
2023-02-02T16:46:00.783Z,7.60
2023-02-02T16:48:47.559Z,7.60
2023-02-02T16:51:17.917Z,7.60
2023-02-02T16:53:51.740Z,7.50
2023-02-02T16:56:35.097Z,7.40
2023-02-02T16:59:22.450Z,7.40
2023-02-02T17:01:59.713Z,7.30
2023-02-02T17:04:32.859Z,7.20
2023-02-02T17:07:16.142Z,7.20
2023-02-02T17:09:46.370Z,7.20
2023-02-02T17:12:32.014Z,7.20
2023-02-02T17:15:34.109Z,7.20
2023-02-02T17:18:05.205Z,7.20
2023-02-02T17:20:34.638Z,7.20
2023-02-02T17:23:07.102Z,7.30
2023-02-02T17:25:42.642Z,7.30
2023-02-02T17:28:18.190Z,7.40
2023-02-02T17:30:49.773Z,7.40
2023-02-02T17:33:19.395Z,7.40
2023-02-02T17:35:54.842Z,7.40
2023-02-02T17:38:25.387Z,7.30
2023-02-02T17:40:54.287Z,7.40
2023-02-02T17:43:21.920Z,7.40
2023-02-02T17:45:50.547Z,7.40
2023-02-02T17:48:17.892Z,7.40
2023-02-02T17:50:45.588Z,7.30
2023-02-02T17:53:15.908Z,7.30
2023-02-02T17:55:46.024Z,7.30
2023-02-02T17:58:17.334Z,7.20
2023-02-02T18:00:55.216Z,7.20
2023-02-02T18:03:33.726Z,7.20
2023-02-02T18:06:02.130Z,7.20
2023-02-02T18:08:30.977Z,7.20
2023-02-02T18:10:59.560Z,7.10
2023-02-02T18:13:27.059Z,7.20
2023-02-02T18:15:56.303Z,7.20
2023-02-02T18:18:23.731Z,7.10
2023-02-02T18:20:51.441Z,7.10
2023-02-02T18:23:19.526Z,7.10
2023-02-02T18:25:47.021Z,7.20
2023-02-02T18:28:17.104Z,7.10
2023-02-02T18:30:47.049Z,7.10
2023-02-02T18:33:19.883Z,7.10
2023-02-02T18:35:48.276Z,7.10
2023-02-02T18:38:15.620Z,7.20
2023-02-02T18:40:45.072Z,7.10
2023-02-02T18:43:12.226Z,7.10
2023-02-02T18:45:39.350Z,7.10
2023-02-02T18:48:06.498Z,7.10
2023-02-02T18:50:33.758Z,7.10
2023-02-02T18:53:00.848Z,7.10
2023-02-02T18:55:28.366Z,7.00
2023-02-02T18:57:56.130Z,7.00
2023-02-02T19:00:23.435Z,7.00
2023-02-02T19:02:53.626Z,7.00
2023-02-02T19:05:39.115Z,6.90
2023-02-02T19:08:06.241Z,6.90
2023-02-02T19:10:33.378Z,6.90
2023-02-02T19:13:06.918Z,6.90
2023-02-02T19:15:38.139Z,6.90
2023-02-02T19:18:18.617Z,6.80
2023-02-02T19:20:49.518Z,6.90
2023-02-02T19:23:26.333Z,6.80
2023-02-02T19:25:56.130Z,6.80
2023-02-02T19:28:26.014Z,6.80
2023-02-02T19:30:56.393Z,6.80
2023-02-02T19:33:39.681Z,6.70
2023-02-02T19:36:23.336Z,6.70
2023-02-02T19:38:56.696Z,6.80
2023-02-02T19:41:26.269Z,6.80
2023-02-02T19:43:59.839Z,6.80
2023-02-02T19:46:29.401Z,6.70
2023-02-02T19:49:12.462Z,6.60
2023-02-02T19:51:53.844Z,6.40
2023-02-02T19:54:41.722Z,6.20
2023-02-02T19:57:36.813Z,6.10
2023-02-02T20:00:22.382Z,6.00
2023-02-02T20:03:11.442Z,5.90
2023-02-02T20:05:46.736Z,5.90
2023-02-02T20:08:26.069Z,5.80
2023-02-02T20:10:55.638Z,5.70
2023-02-02T20:13:40.442Z,5.60
2023-02-02T20:16:18.661Z,5.60
2023-02-02T20:18:57.398Z,5.50
2023-02-02T20:21:43.427Z,5.60
2023-02-02T20:24:40.797Z,5.50
2023-02-02T20:27:24.242Z,5.50
2023-02-02T20:29:53.744Z,5.50
2023-02-02T20:32:26.697Z,5.50
2023-02-02T20:34:59.290Z,5.50
2023-02-02T20:37:30.472Z,5.40
2023-02-02T20:40:21.976Z,5.40
2023-02-02T20:42:58.370Z,5.40
2023-02-02T20:45:26.113Z,5.40
2023-02-02T20:47:53.578Z,5.50
2023-02-02T20:50:22.724Z,5.40
2023-02-02T20:52:52.080Z,5.40
2023-02-02T20:55:19.597Z,5.40
2023-02-02T20:57:46.905Z,5.40
2023-02-02T21:00:17.260Z,5.40
2023-02-02T21:02:44.596Z,5.40
2023-02-02T21:05:12.375Z,5.40
2023-02-02T21:07:39.599Z,5.40
2023-02-02T21:10:07.577Z,5.30
2023-02-02T21:12:34.686Z,5.30
2023-02-02T21:15:03.995Z,5.30
2023-02-02T21:17:31.240Z,5.30
2023-02-02T21:19:58.376Z,5.20
2023-02-02T21:22:25.618Z,5.20
2023-02-02T21:24:53.527Z,5.20
2023-02-02T21:27:21.117Z,5.20
2023-02-02T21:29:48.781Z,5.20
2023-02-02T21:32:16.160Z,5.20
2023-02-02T21:34:43.905Z,5.20
2023-02-02T21:37:14.582Z,5.20
2023-02-02T21:39:48.709Z,5.20
2023-02-02T21:42:20.456Z,5.10
2023-02-02T21:45:22.627Z,5.10
2023-02-02T21:47:56.586Z,5.10
2023-02-02T21:50:37.032Z,5.10
2023-02-02T21:53:09.938Z,5.10
2023-02-02T21:55:39.602Z,5.10
2023-02-02T21:58:28.163Z,5.10
2023-02-02T22:01:00.154Z,5.10
2023-02-02T22:03:38.076Z,5.10
2023-02-02T22:06:05.162Z,5.00
2023-02-02T22:08:45.068Z,5.10
2023-02-02T22:11:40.845Z,5.10
2023-02-02T22:14:24.554Z,5.10
2023-02-02T22:16:58.777Z,5.00
2023-02-02T22:19:39.022Z,5.00
2023-02-02T22:22:19.091Z,5.00
2023-02-02T22:24:53.692Z,5.10
2023-02-02T22:27:24.883Z,5.10
2023-02-02T22:30:36.956Z,5.10
2023-02-02T22:33:06.551Z,5.10
2023-02-02T22:35:34.443Z,5.10
2023-02-02T22:38:02.626Z,5.10
2023-02-02T22:40:30.177Z,5.10
2023-02-02T22:43:00.795Z,5.10
2023-02-02T22:45:28.226Z,5.10
2023-02-02T22:47:55.477Z,5.10
2023-02-02T22:50:26.463Z,5.10
2023-02-02T22:52:53.752Z,5.10
2023-02-02T22:55:21.307Z,5.10
2023-02-02T22:57:48.698Z,5.10
2023-02-02T23:00:22.444Z,5.10
2023-02-02T23:02:51.444Z,5.20
2023-02-02T23:05:20.518Z,5.20
2023-02-02T23:07:49.085Z,5.30
2023-02-02T23:10:19.961Z,5.30
2023-02-02T23:12:48.063Z,5.30
2023-02-02T23:15:16.613Z,5.40
2023-02-02T23:17:43.807Z,5.40
2023-02-02T23:20:14.089Z,5.30
2023-02-02T23:22:41.316Z,5.40
2023-02-02T23:25:12.620Z,5.40
2023-02-02T23:27:40.453Z,5.40
2023-02-02T23:30:10.088Z,5.40
2023-02-02T23:32:37.243Z,5.40
2023-02-02T23:35:06.021Z,5.40
2023-02-02T23:37:33.630Z,5.40
2023-02-02T23:40:00.733Z,5.50
2023-02-02T23:42:27.907Z,5.50
2023-02-02T23:44:54.995Z,5.50
2023-02-02T23:47:22.144Z,5.50
2023-02-02T23:49:49.265Z,5.50
2023-02-02T23:52:16.898Z,5.50
2023-02-02T23:54:44.251Z,5.50
2023-02-02T23:57:11.497Z,5.50
2023-02-02T23:59:38.686Z,5.60
